Time;durP1;ratioP1;P1;durP2;ratioP2;P2;SDS_P1;SDS_P2;PMS_P1;PMS_P2;Temp;Humidity;BMP_temperature;BMP_pressure;BME280_temperature;BME280_humidity;BME280_pressure;Samples;Min_cycle;Max_cycle;Signal;HPM_P1;HPM_P2
2022/06/08 00:00:56;;;;;;;18.38;16.77;;;;;;;13.39;100.00;101042.84;5199131;28;20116;-80
2022/06/08 00:03:33;;;;;;;18.52;17.10;;;;;;;13.50;100.00;101044.50;5198082;28;20026;-80
2022/06/08 00:06:04;;;;;;;18.02;16.55;;;;;;;13.48;100.00;101036.63;5199551;28;20030;-80
2022/06/08 00:08:35;;;;;;;18.85;17.38;;;;;;;13.41;100.00;101027.13;5198134;28;20025;-80
2022/06/08 00:11:06;;;;;;;19.85;17.80;;;;;;;13.51;100.00;101032.56;5197432;28;20036;-80
2022/06/08 00:13:37;;;;;;;18.60;17.23;;;;;;;13.55;100.00;101040.97;5196782;28;20053;-80
2022/06/08 00:16:09;;;;;;;19.65;17.90;;;;;;;13.56;100.00;101042.59;5197681;28;20518;-80
2022/06/08 00:18:40;;;;;;;18.98;17.58;;;;;;;13.59;100.00;101039.31;5198379;28;20048;-80
2022/06/08 00:21:13;;;;;;;17.48;15.98;;;;;;;13.63;100.00;101035.78;5198253;28;20456;-80
2022/06/08 00:23:44;;;;;;;17.83;16.17;;;;;;;13.51;100.00;101010.84;5196316;28;20025;-81
2022/06/08 00:26:14;;;;;;;16.52;15.10;;;;;;;13.68;100.00;101030.38;5197890;28;20033;-79
2022/06/08 00:28:45;;;;;;;16.92;15.60;;;;;;;13.63;100.00;101007.84;5197784;28;20044;-80
2022/06/08 00:31:15;;;;;;;13.60;12.55;;;;;;;13.70;100.00;101027.38;5199123;28;20046;-79
2022/06/08 00:33:46;;;;;;;15.90;14.68;;;;;;;13.57;100.00;101006.25;5202755;28;20030;-80
2022/06/08 00:36:16;;;;;;;14.75;13.45;;;;;;;13.46;100.00;100984.53;5196995;28;20061;-80
2022/06/08 00:38:47;;;;;;;15.93;14.30;;;;;;;13.69;100.00;101007.56;5197221;28;20034;-80
2022/06/08 00:41:48;;;;;;;15.70;14.43;;;;;;;13.71;100.00;101001.88;5196106;28;20018;-80
2022/06/08 00:44:26;;;;;;;11.93;10.63;;;;;;;13.70;100.00;100995.63;5196468;28;20029;-80
2022/06/08 00:46:59;;;;;;;14.48;13.25;;;;;;;13.59;100.00;100975.00;5195199;28;20022;-81
2022/06/08 00:49:35;;;;;;;13.35;12.25;;;;;;;13.68;100.00;100991.56;5196978;28;20022;-80
2022/06/08 00:52:07;;;;;;;13.60;11.88;;;;;;;13.62;100.00;100982.59;5195526;28;20128;-80
2022/06/08 00:54:46;;;;;;;11.85;10.80;;;;;;;13.70;100.00;100987.50;5195567;28;20045;-80
2022/06/08 00:57:22;;;;;;;13.55;12.65;;;;;;;13.57;100.00;100960.13;5196815;28;20523;-80
2022/06/08 01:00:24;;;;;;;13.30;12.30;;;;;;;13.71;100.00;100974.75;5197064;28;20050;-80
2022/06/08 01:02:54;;;;;;;11.73;10.90;;;;;;;13.65;100.00;100965.78;5196919;28;20052;-80
2022/06/08 01:05:30;;;;;;;10.55;9.75;;;;;;;13.72;100.00;100969.03;5195663;28;20029;-79
2022/06/08 01:08:20;;;;;;;12.15;11.25;;;;;;;13.74;100.00;100966.03;5194958;28;20026;-79
2022/06/08 01:10:53;;;;;;;;;;;;;;;13.73;100.00;100962.53;5195212;28;20469;-79
2022/06/08 01:13:26;;;;;;;9.68;8.93;;;;;;;13.72;100.00;100962.78;5195673;28;19909;-80
2022/06/08 01:16:01;;;;;;;10.48;9.63;;;;;;;13.58;100.00;100951.69;5198467;28;20029;-80
2022/06/08 01:18:32;;;;;;;10.60;9.63;;;;;;;13.47;100.00;100941.94;5200390;28;20038;-80
2022/06/08 01:21:21;;;;;;;9.90;9.00;;;;;;;13.58;100.00;100964.44;5199443;28;20030;-80
2022/06/08 01:23:56;;;;;;;7.35;6.85;;;;;;;13.58;100.00;100948.16;5198517;28;20104;-80
2022/06/08 01:27:05;;;;;;;9.73;9.02;;;;;;;13.58;100.00;100957.09;5195980;28;20049;-80
2022/06/08 01:29:48;;;;;;;8.15;7.65;;;;;;;13.56;100.00;100943.03;5194679;28;20026;-80
2022/06/08 01:33:02;;;;;;;8.35;7.80;;;;;;;13.43;100.00;100930.00;5195660;28;20029;-79
2022/06/08 01:36:15;;;;;;;8.48;7.82;;;;;;;13.12;100.00;100900.16;5182653;28;20037;-79
2022/06/08 01:38:58;;;;;;;6.85;6.53;;;;;;;13.23;100.00;100925.41;5182149;28;20038;-80
2022/06/08 01:41:44;;;;;;;9.23;8.60;;;;;;;13.17;100.00;100918.38;5193961;28;20026;-79
2022/06/08 01:47:44;;;;;;;7.55;7.10;;;;;;;13.12;100.00;100916.44;5193896;28;20057;-80
2022/06/08 01:50:35;;;;;;;9.48;8.73;;;;;;;12.94;100.00;100880.94;5193923;28;20026;-80
2022/06/08 01:55:49;;;;;;;8.95;8.45;;;;;;;13.06;100.00;100897.72;5241863;22;20045;-62
2022/06/08 01:58:48;;;;;;;9.70;8.90;;;;;;;13.08;100.00;100890.13;5224316;28;20029;-60
2022/06/08 02:01:32;;;;;;;9.07;8.48;;;;;;;13.14;100.00;100894.47;5225320;28;20178;-58
2022/06/08 02:04:18;;;;;;;9.68;8.93;;;;;;;13.14;100.00;100887.16;5225416;28;20104;-61
2022/06/08 02:07:02;;;;;;;9.07;8.38;;;;;;;13.03;100.00;100874.66;5224247;28;20044;-61
2022/06/08 02:13:35;;;;;;;11.13;10.23;;;;;;;13.02;100.00;100854.06;5225199;28;20138;-61
2022/06/08 02:16:16;;;;;;;9.65;8.70;;;;;;;12.96;100.00;100838.09;5223508;28;20496;-60
2022/06/08 02:18:56;;;;;;;10.25;9.55;;;;;;;13.06;100.00;100849.72;5224075;28;20132;-59
2022/06/08 02:21:45;;;;;;;9.63;8.75;;;;;;;13.09;100.00;100856.50;5223584;28;20033;-60
2022/06/08 02:24:20;;;;;;;11.52;10.43;;;;;;;13.17;100.00;100850.56;5223497;28;20492;-62
2022/06/08 02:26:59;;;;;;;13.38;12.32;;;;;;;13.02;100.00;100832.38;5223985;28;20271;-59
2022/06/08 02:29:37;;;;;;;10.70;9.73;;;;;;;13.14;100.00;100840.25;5223859;28;20025;-61
2022/06/08 02:35:12;;;;;;;13.10;11.88;;;;;;;13.30;100.00;100833.72;5224986;28;20048;-61
2022/06/08 02:37:47;;;;;;;11.23;10.10;;;;;;;13.32;100.00;100834.25;5223337;28;20028;-61
2022/06/08 02:41:07;;;;;;;11.82;10.88;;;;;;;13.44;100.00;100829.38;5223704;28;20155;-60
2022/06/08 02:43:44;;;;;;;10.85;9.95;;;;;;;13.47;100.00;100830.72;5224273;28;20029;-60
2022/06/08 02:46:30;;;;;;;11.30;10.40;;;;;;;13.48;100.00;100824.19;5223130;28;20036;-59
2022/06/08 02:49:06;;;;;;;11.57;9.05;;;;;;;13.45;100.00;100809.28;5223247;28;20435;-59
2022/06/08 02:51:41;;;;;;;9.48;8.70;;;;;;;13.48;100.00;100814.16;5222882;28;20067;-61
2022/06/08 02:54:20;;;;;;;9.07;8.32;;;;;;;13.45;100.00;100817.44;5222832;28;20403;-61
2022/06/08 03:00:27;;;;;;;9.48;8.65;;;;;;;13.43;100.00;100797.91;5224364;28;20044;-60
2022/06/08 03:03:01;;;;;;;9.88;7.00;;;;;;;13.58;100.00;100807.06;5222878;28;20021;-61
2022/06/08 03:05:48;;;;;;;10.52;7.35;;;;;;;13.59;100.00;100800.53;5222380;28;20176;-61
2022/06/08 03:08:27;;;;;;;7.63;7.13;;;;;;;13.46;100.00;100783.78;5222886;28;20173;-61
2022/06/08 03:11:00;;;;;;;9.27;7.60;;;;;;;13.55;100.00;100794.06;5222638;28;20445;-60
2022/06/08 03:17:23;;;;;;;8.27;7.85;;;;;;;13.54;100.00;100787.03;5224871;28;20071;-60
2022/06/08 03:19:54;;;;;;;8.27;7.63;;;;;;;13.54;100.00;100785.13;5219747;28;20025;-59
2022/06/08 03:22:24;;;;;;;12.77;7.10;;;;;;;13.62;100.00;100791.84;5219897;28;20103;-60
2022/06/08 03:24:55;;;;;;;6.88;6.40;;;;;;;13.66;100.00;100799.16;5222288;28;20127;-60
2022/06/08 03:27:25;;;;;;;10.73;7.38;;;;;;;13.63;100.00;100798.91;5222645;28;20025;-60
2022/06/08 03:29:56;;;;;;;7.30;6.68;;;;;;;13.67;100.00;100805.41;5222305;28;20473;-59
2022/06/08 03:32:27;;;;;;;7.65;7.00;;;;;;;13.68;100.00;100802.41;5222715;28;20448;-58
2022/06/08 03:34:57;;;;;;;8.68;6.13;;;;;;;13.64;100.00;100795.09;5222348;28;20477;-61
2022/06/08 03:37:28;;;;;;;6.30;5.80;;;;;;;13.61;100.00;100793.75;5222692;28;20032;-58
2022/06/08 03:39:58;;;;;;;8.32;7.63;;;;;;;13.66;100.00;100792.91;5222501;28;20021;-62
2022/06/08 03:42:29;;;;;;;7.22;6.72;;;;;;;13.68;100.00;100790.75;5222084;28;20013;-60
2022/06/08 03:45:00;;;;;;;7.07;6.50;;;;;;;13.78;100.00;100799.66;5221912;28;20040;-62
2022/06/08 03:47:37;;;;;;;6.60;6.10;;;;;;;13.89;100.00;100797.69;5223060;28;20088;-63
2022/06/08 03:50:12;;;;;;;6.90;6.13;;;;;;;13.82;100.00;100781.72;5224545;28;20480;-60
2022/06/08 03:52:47;;;;;;;6.38;5.82;;;;;;;13.83;100.00;100782.53;5222715;28;20024;-61
2022/06/08 03:55:19;;;;;;;5.80;5.50;;;;;;;13.83;100.00;100768.97;5223192;28;20052;-60
2022/06/08 03:57:50;;;;;;;6.72;6.13;;;;;;;13.90;100.00;100787.66;5224156;28;20499;-61
2022/06/08 04:00:24;;;;;;;5.43;4.97;;;;;;;13.98;100.00;100779.72;5222455;28;20052;-61
2022/06/08 04:02:55;;;;;;;5.57;5.18;;;;;;;13.99;100.00;100775.94;5223424;28;20029;-61
2022/06/08 04:05:29;;;;;;;4.63;4.35;;;;;;;14.08;100.00;100778.88;5220999;28;20112;-62
2022/06/08 04:07:59;;;;;;;4.07;3.88;;;;;;;14.14;100.00;100778.56;5222139;28;20043;-61
2022/06/08 04:10:30;;;;;;;4.88;4.60;;;;;;;14.14;100.00;100762.28;5218671;28;20036;-61
2022/06/08 04:13:00;;;;;;;5.22;4.93;;;;;;;14.22;100.00;100754.59;5223026;28;20064;-59
2022/06/08 04:15:43;;;;;;;4.72;4.43;;;;;;;14.34;100.00;100765.91;5222952;28;20025;-59
2022/06/08 04:18:23;;;;;;;8.38;4.88;;;;;;;14.36;100.00;100759.13;5208650;28;20044;-60
2022/06/08 04:20:55;;;;;;;5.25;5.03;;;;;;;14.43;100.00;100754.22;5204302;28;20025;-60
2022/06/08 04:23:28;;;;;;;4.30;3.95;;;;;;;14.44;100.00;100763.13;5206096;28;20186;-60
2022/06/08 04:25:59;;;;;;;4.82;4.63;;;;;;;14.43;100.00;100762.34;5207092;28;20116;-60
2022/06/08 04:28:30;;;;;;;4.00;3.80;;;;;;;14.47;100.00;100749.00;5207469;28;20033;-61
2022/06/08 04:31:01;;;;;;;5.38;4.05;;;;;;;14.59;100.00;100756.78;5208111;28;20397;-61
2022/06/08 04:33:35;;;;;;;3.88;3.67;;;;;;;14.66;100.00;100758.09;5225261;28;20021;-60
2022/06/08 04:36:07;;;;;;;4.32;3.92;;;;;;;14.71;100.00;100758.03;5226547;28;20027;-61
2022/06/08 04:38:38;;;;;;;5.20;4.88;;;;;;;14.72;100.00;100751.50;5227628;28;20021;-60
2022/06/08 04:41:09;;;;;;;4.70;4.50;;;;;;;14.77;100.00;100758.78;5225800;28;20311;-60
2022/06/08 04:43:40;;;;;;;7.22;4.88;;;;;;;14.82;100.00;100745.97;5225759;28;20131;-62
2022/06/08 04:46:17;;;;;;;4.78;4.32;;;;;;;14.96;100.00;100750.72;5226061;28;20037;-61
2022/06/08 04:48:48;;;;;;;4.93;4.55;;;;;;;15.08;100.00;100743.78;5227621;28;20518;-62
2022/06/08 04:51:18;;;;;;;4.18;3.88;;;;;;;15.03;100.00;100727.50;5225620;28;20032;-62
2022/06/08 04:53:49;;;;;;;4.72;4.30;;;;;;;15.19;100.00;100739.06;5224967;28;20619;-62
2022/06/08 04:56:38;;;;;;;6.88;4.45;;;;;;;15.21;100.00;100731.41;5215219;28;20111;-62
2022/06/08 04:59:09;;;;;;;3.83;3.63;;;;;;;15.31;100.00;100742.16;5223247;28;20084;-60
2022/06/08 05:01:39;;;;;;;3.85;3.65;;;;;;;15.30;100.00;100740.56;5225255;28;20060;-65
2022/06/08 05:04:10;;;;;;;3.25;3.00;;;;;;;15.38;100.00;100742.63;5223481;28;20047;-60
2022/06/08 05:06:40;;;;;;;4.18;3.97;;;;;;;15.44;100.00;100752.34;5224641;28;20017;-61
2022/06/08 05:09:11;;;;;;;10.07;3.42;;;;;;;15.39;100.00;100721.66;5224705;28;20124;-60
2022/06/08 05:11:41;;;;;;;4.40;3.22;;;;;;;15.34;100.00;100708.13;5224826;28;20147;-61
2022/06/08 05:14:13;;;;;;;4.28;4.00;;;;;;;15.52;100.00;100729.94;5220802;28;20037;-60
2022/06/08 05:16:43;;;;;;;3.95;3.65;;;;;;;15.58;100.00;100722.56;5213769;28;20024;-60
2022/06/08 05:19:14;;;;;;;7.85;4.03;;;;;;;15.61;100.00;100723.84;5211206;28;20576;-60
2022/06/08 05:21:44;;;;;;;3.08;2.95;;;;;;;15.69;100.00;100725.94;5207308;28;20026;-61
2022/06/08 05:24:15;;;;;;;3.28;2.92;;;;;;;15.81;100.00;100726.31;5211616;28;20096;-60
2022/06/08 05:26:45;;;;;;;6.72;3.00;;;;;;;15.71;100.00;100691.88;5224782;28;20094;-60
2022/06/08 05:29:16;;;;;;;2.80;2.00;;;;;;;15.98;100.00;100725.78;5224295;28;20119;-60
2022/06/08 05:31:46;;;;;;;3.63;3.33;;;;;;;15.99;100.00;100720.06;5220930;28;20074;-61
2022/06/08 05:34:16;;;;;;;6.10;3.67;;;;;;;16.04;100.00;100724.63;5220094;28;20040;-61
2022/06/08 05:36:47;;;;;;;4.97;3.28;;;;;;;16.05;100.00;100712.63;5224233;28;20112;-61
2022/06/08 05:39:18;;;;;;;3.88;3.25;;;;;;;16.03;100.00;100714.81;5225629;28;20071;-60
2022/06/08 05:41:48;;;;;;;3.08;2.97;;;;;;;16.15;100.00;100724.16;5223714;28;20051;-59
2022/06/08 05:44:20;;;;;;;4.90;4.65;;;;;;;16.12;100.00;100722.03;5226079;28;20440;-61
2022/06/08 05:46:51;;;;;;;5.03;4.63;;;;;;;16.30;100.00;100725.03;5225151;28;20028;-61
2022/06/08 05:49:22;;;;;;;3.70;3.50;;;;;;;16.26;100.00;100718.53;5225063;28;20506;-61
2022/06/08 05:51:53;;;;;;;4.57;4.03;;;;;;;16.37;100.00;100714.56;5225267;28;20108;-61
2022/06/08 05:54:23;;;;;;;4.80;4.40;;;;;;;16.47;100.00;100707.00;5224769;28;20426;-61
2022/06/08 05:56:54;;;;;;;3.78;3.38;;;;;;;16.54;100.00;100698.44;5225317;28;20044;-60
2022/06/08 05:59:25;;;;;;;3.80;3.60;;;;;;;16.78;100.00;100701.84;5225600;28;20021;-61
2022/06/08 06:01:56;;;;;;;3.22;3.03;;;;;;;16.97;100.00;100703.69;5225101;28;20123;-60
2022/06/08 06:04:26;;;;;;;7.15;3.85;;;;;;;16.97;100.00;100701.78;5225083;28;20107;-60
2022/06/08 06:06:57;;;;;;;4.28;3.95;;;;;;;17.13;100.00;100705.81;5224833;28;20039;-60
2022/06/08 06:09:27;;;;;;;6.10;3.53;;;;;;;17.28;100.00;100707.44;5225104;28;20128;-62
2022/06/08 06:11:58;;;;;;;3.08;2.88;;;;;;;17.44;100.00;100706.00;5215400;28;20066;-60
2022/06/08 06:14:28;;;;;;;3.47;3.25;;;;;;;17.44;100.00;100691.53;5225230;28;20040;-62
2022/06/08 06:16:59;;;;;;;6.45;3.45;;;;;;;17.61;100.00;100696.38;5223767;28;20029;-61
2022/06/08 06:19:30;;;;;;;5.13;4.03;;;;;;;17.86;100.00;100698.56;5223903;28;20025;-60
2022/06/08 06:22:01;;;;;;;3.55;3.35;;;;;;;17.98;100.00;100687.88;5223756;28;20071;-61
2022/06/08 06:24:32;;;;;;;3.75;3.45;;;;;;;18.27;100.00;100701.09;5223514;28;20031;-61
2022/06/08 06:27:03;;;;;;;3.33;3.13;;;;;;;18.49;100.00;100695.63;5223519;28;20565;-61
2022/06/08 06:29:34;;;;;;;7.85;4.32;;;;;;;18.65;100.00;100690.59;5223307;28;20112;-61
2022/06/08 06:32:10;;;;;;;3.78;3.40;;;;;;;18.83;100.00;100688.75;5223344;28;20135;-61
2022/06/08 06:34:40;;;;;;;3.47;3.28;;;;;;;18.97;100.00;100685.91;5223374;28;20371;-60
2022/06/08 06:37:11;;;;;;;3.05;2.85;;;;;;;18.94;100.00;100692.00;5224814;28;20040;-60
2022/06/08 06:39:41;;;;;;;3.65;3.33;;;;;;;19.01;100.00;100686.91;5223830;28;20461;-60
2022/06/08 06:42:16;;;;;;;4.38;4.03;;;;;;;19.08;100.00;100682.56;5223610;28;20101;-60
2022/06/08 06:44:47;;;;;;;2.78;2.65;;;;;;;19.22;100.00;100686.00;5222076;28;20029;-59
2022/06/08 06:47:18;;;;;;;5.75;3.03;;;;;;;19.23;100.00;100693.09;5223703;28;20401;-59
2022/06/08 06:49:49;;;;;;;7.07;5.15;;;;;;;19.23;100.00;100686.81;5223717;28;20032;-59
2022/06/08 06:52:20;;;;;;;5.35;3.53;;;;;;;19.16;100.00;100686.44;5223667;28;20105;-59
2022/06/08 06:54:51;;;;;;;3.58;3.28;;;;;;;19.06;100.00;100689.47;5223602;28;20115;-59
2022/06/08 06:57:21;;;;;;;4.57;3.00;;;;;;;19.14;100.00;100691.44;5223726;28;20033;-60
2022/06/08 06:59:52;;;;;;;3.90;3.60;;;;;;;19.22;100.00;100693.41;5224268;28;20024;-61
2022/06/08 07:02:22;;;;;;;17.67;4.47;;;;;;;19.26;100.00;100677.16;5224480;28;20112;-61
2022/06/08 07:04:54;;;;;;;3.05;2.83;;;;;;;19.35;100.00;100686.97;5209162;28;20053;-61
2022/06/08 07:07:25;;;;;;;8.70;3.38;;;;;;;19.40;100.00;100681.34;5225741;28;20396;-61
2022/06/08 07:09:55;;;;;;;6.25;4.47;;;;;;;19.43;100.00;100679.91;5226140;28;20035;-61
2022/06/08 07:12:25;;;;;;;3.60;3.33;;;;;;;19.47;100.00;100689.91;5225050;28;20021;-61
2022/06/08 07:14:56;;;;;;;3.22;2.38;;;;;;;19.42;100.00;100690.06;5225296;28;20519;-61
2022/06/08 07:17:26;;;;;;;2.95;2.75;;;;;;;19.22;100.00;100664.09;5226732;28;20051;-61
2022/06/08 07:19:57;;;;;;;2.28;2.10;;;;;;;19.31;100.00;100672.34;5225209;28;20033;-63
2022/06/08 07:22:27;;;;;;;8.93;5.10;;;;;;;19.22;100.00;100666.03;5224691;28;20025;-61
2022/06/08 07:24:58;;;;;;;4.65;4.00;;;;;;;19.30;100.00;100675.38;5231438;28;20487;-61
2022/06/08 07:27:28;;;;;;;6.45;4.00;;;;;;;19.29;100.00;100676.50;5232368;28;20032;-62
2022/06/08 07:29:59;;;;;;;2.30;2.20;;;;;;;18.99;100.00;100654.38;5223282;28;20315;-62
2022/06/08 07:33:04;;;;;;;6.50;4.53;;;;;;;19.04;100.00;100675.31;5223139;28;20017;-61
2022/06/08 07:35:34;;;;;;;4.30;3.67;;;;;;;19.02;100.00;100677.56;5222616;28;20097;-63
2022/06/08 07:38:05;;;;;;;8.20;3.58;;;;;;;18.96;100.00;100676.09;5224463;28;20104;-61
2022/06/08 07:40:35;;;;;;;9.20;3.65;;;;;;;18.76;100.00;100686.47;5222781;28;20098;-61
2022/06/08 07:43:06;;;;;;;3.53;3.22;;;;;;;18.56;100.00;100665.09;5223010;28;20036;-61
2022/06/08 07:46:07;;;;;;;9.98;4.18;;;;;;;18.64;100.00;100674.50;5222699;28;20127;-63
2022/06/08 07:51:27;;;;;;;5.80;3.90;;;;;;;18.50;100.00;100678.09;5224158;28;20036;-64
2022/06/08 07:53:57;;;;;;;6.35;5.63;;;;;;;18.42;100.00;100676.13;5237064;22;20021;-64
2022/06/08 07:56:29;;;;;;;7.22;3.60;;;;;;;18.25;100.00;100639.66;5223851;28;20140;-65
2022/06/08 07:59:00;;;;;;;4.43;3.92;;;;;;;18.55;100.00;100679.88;5209091;28;20365;-64
2022/06/08 08:01:30;;;;;;;4.72;3.70;;;;;;;18.46;100.00;100679.06;5208332;28;20083;-67
2022/06/08 08:04:01;;;;;;;6.43;3.75;;;;;;;18.41;100.00;100679.19;5207544;28;20055;-66
2022/06/08 08:06:32;;;;;;;6.88;3.28;;;;;;;18.34;100.00;100678.81;5224788;28;20065;-64
2022/06/08 08:09:03;;;;;;;4.68;3.95;;;;;;;18.43;100.00;100682.41;5224457;28;20531;-63
2022/06/08 08:11:33;;;;;;;4.30;3.55;;;;;;;18.42;100.00;100684.34;5207804;28;20029;-65
2022/06/08 08:14:04;;;;;;;4.10;3.85;;;;;;;18.42;100.00;100687.06;5207757;28;20124;-65
2022/06/08 08:16:34;;;;;;;3.00;2.80;;;;;;;18.39;100.00;100695.09;5209025;28;20035;-63
2022/06/08 08:19:05;;;;;;;3.30;3.05;;;;;;;18.21;100.00;100677.75;5209532;28;20102;-64
2022/06/08 08:21:37;;;;;;;4.30;3.53;;;;;;;18.16;100.00;100683.38;5207488;28;20025;-64
2022/06/08 08:24:07;;;;;;;5.35;4.30;;;;;;;18.14;100.00;100685.59;5207520;28;20079;-63
2022/06/08 08:26:39;;;;;;;7.57;5.05;;;;;;;18.06;100.00;100691.78;5207670;28;20440;-64
2022/06/08 08:29:09;;;;;;;4.80;4.05;;;;;;;18.06;100.00;100681.66;5207356;28;20120;-63
2022/06/08 08:31:41;;;;;;;5.00;3.97;;;;;;;18.04;100.00;100683.91;5207180;28;20120;-63
2022/06/08 08:34:11;;;;;;;4.47;3.88;;;;;;;17.98;100.00;100679.66;5223997;28;20026;-62
2022/06/08 08:36:42;;;;;;;4.45;3.15;;;;;;;17.87;100.00;100660.00;5207217;28;20116;-61
2022/06/08 08:39:13;;;;;;;6.53;4.55;;;;;;;18.03;100.00;100678.75;5207442;28;20127;-62
2022/06/08 08:44:39;;;;;;;5.82;4.30;;;;;;;17.90;100.00;100680.44;5208653;28;20516;-62
2022/06/08 08:47:28;;;;;;;3.95;3.75;;;;;;;17.88;100.00;100690.84;5224056;28;20497;-62
2022/06/08 08:50:17;;;;;;;5.85;4.07;;;;;;;17.81;100.00;100682.28;5223961;28;20075;-63
2022/06/08 08:53:09;;;;;;;9.20;5.63;;;;;;;17.80;100.00;100680.66;5223657;28;20048;-62
2022/06/08 08:56:11;;;;;;;3.60;3.30;;;;;;;17.74;100.00;100677.22;5223733;28;20478;-62
2022/06/08 08:58:45;;;;;;;11.95;4.95;;;;;;;17.68;100.00;100677.66;5206710;28;20026;-61
2022/06/08 09:01:31;;;;;;;5.55;5.15;;;;;;;17.78;100.00;100678.25;5206766;28;20029;-62
2022/06/08 09:04:13;;;;;;;8.52;3.83;;;;;;;17.83;100.00;100685.50;5207966;28;20029;-61
2022/06/08 09:06:43;;;;;;;8.50;5.30;;;;;;;17.91;100.00;100684.75;5222083;28;20041;-61
2022/06/08 09:09:19;;;;;;;5.18;4.88;;;;;;;18.04;100.00;100681.16;5206600;28;20029;-61
2022/06/08 09:11:50;;;;;;;5.50;3.97;;;;;;;17.98;100.00;100673.41;5206340;28;20542;-61
2022/06/08 09:14:24;;;;;;;3.83;3.53;;;;;;;17.96;100.00;100681.09;5222938;28;20033;-61
2022/06/08 09:17:27;;;;;;;10.85;4.90;;;;;;;18.00;100.00;100682.09;5206633;28;20091;-61
2022/06/08 09:19:57;;;;;;;11.65;4.03;;;;;;;18.06;100.00;100668.00;5191063;28;20217;-61
2022/06/08 09:22:31;;;;;;;4.00;3.70;;;;;;;17.92;100.00;100678.16;5206544;28;20131;-60
2022/06/08 09:25:24;;;;;;;7.80;4.32;;;;;;;17.72;100.00;100668.53;5206295;28;20057;-61
2022/06/08 09:27:56;;;;;;;3.95;3.75;;;;;;;17.70;100.00;100675.41;5222607;28;20025;-61
2022/06/08 09:30:30;;;;;;;3.47;3.28;;;;;;;17.72;100.00;100678.66;5222676;28;20026;-61
2022/06/08 09:33:17;;;;;;;4.00;3.70;;;;;;;17.76;100.00;100668.72;5222968;28;20066;-62
2022/06/08 09:35:55;;;;;;;4.03;3.72;;;;;;;17.82;100.00;100668.31;5205886;28;20025;-61
2022/06/08 09:38:29;;;;;;;5.93;3.65;;;;;;;17.85;100.00;100675.09;5222491;28;20120;-61
2022/06/08 09:41:15;;;;;;;5.50;3.88;;;;;;;17.83;100.00;100669.13;5222180;28;20037;-62
2022/06/08 09:44:02;;;;;;;7.30;3.75;;;;;;;17.77;100.00;100670.34;5205944;28;20100;-61
2022/06/08 09:53:07;;;;;;;6.32;5.47;;;;;;;17.68;100.00;100664.00;5207286;28;20103;-63
2022/06/08 09:55:55;;;;;;;8.55;5.28;;;;;;;17.62;100.00;100667.91;5222586;28;20039;-62
2022/06/08 09:58:28;;;;;;;6.53;5.90;;;;;;;17.49;100.00;100661.41;5222483;28;20021;-62
2022/06/08 10:01:18;;;;;;;3.80;3.50;;;;;;;17.53;100.00;100659.66;5222384;28;20036;-62
2022/06/08 10:04:24;;;;;;;11.77;4.50;;;;;;;17.35;100.00;100652.41;5195342;28;20014;-63
2022/06/08 10:07:01;;;;;;;8.95;5.60;;;;;;;17.12;100.00;100665.19;5185280;28;20057;-61
2022/06/08 10:09:55;;;;;;;5.68;3.95;;;;;;;17.03;100.00;100654.19;5201512;28;20112;-62
2022/06/08 10:12:50;;;;;;;5.70;3.53;;;;;;;17.02;100.00;100665.41;5184601;28;20129;-61
2022/06/08 10:15:41;;;;;;;10.88;5.28;;;;;;;16.82;100.00;100664.69;5201054;28;20032;-62
2022/06/08 10:18:39;;;;;;;3.58;3.28;;;;;;;16.69;100.00;100651.06;5185794;28;20033;-62
2022/06/08 10:21:22;;;;;;;5.40;3.33;;;;;;;16.57;100.00;100665.13;5185080;28;20089;-62
2022/06/08 10:24:05;;;;;;;7.07;2.83;;;;;;;16.38;100.00;100657.03;5185092;28;20026;-62
2022/06/08 10:26:51;;;;;;;4.07;3.80;;;;;;;16.12;100.00;100664.81;5184677;28;20022;-62
2022/06/08 10:29:37;;;;;;;3.95;3.75;;;;;;;15.98;100.00;100663.16;5201413;28;20105;-62
2022/06/08 10:32:14;;;;;;;3.38;3.08;;;;;;;15.97;100.00;100662.34;5201666;28;20028;-61
2022/06/08 10:34:52;;;;;;;3.70;3.45;;;;;;;15.94;100.00;100643.84;5185448;28;20052;-61
2022/06/08 10:37:30;;;;;;;4.00;3.70;;;;;;;16.12;100.00;100651.22;5184613;28;20548;-60
2022/06/08 10:40:05;;;;;;;7.63;3.78;;;;;;;16.09;100.00;100653.72;5185003;28;20056;-61
2022/06/08 10:42:40;;;;;;;4.20;3.33;;;;;;;16.10;100.00;100636.25;5184658;28;20029;-61
2022/06/08 10:45:19;;;;;;;2.72;2.63;;;;;;;16.32;100.00;100651.97;5184059;28;20104;-60
2022/06/08 10:48:00;;;;;;;4.57;4.28;;;;;;;16.39;100.00;100636.03;5201361;28;20026;-63
2022/06/08 10:50:40;;;;;;;4.68;4.07;;;;;;;16.55;100.00;100635.44;5185983;28;20124;-61
2022/06/08 10:56:45;;;;;;;;;;;;;;;16.61;100.00;100638.88;5186217;28;20072;-64
2022/06/08 10:59:25;;;;;;;3.58;3.38;;;;;;;16.63;100.00;100635.84;5184725;28;19910;-60
2022/06/08 11:02:10;;;;;;;3.15;2.95;;;;;;;16.55;100.00;100638.16;5200547;28;20021;-61
2022/06/08 11:05:19;;;;;;;4.88;2.58;;;;;;;16.51;100.00;100639.88;5184394;28;20463;-62
2022/06/08 11:08:00;;;;;;;4.53;4.22;;;;;;;16.51;100.00;100634.41;5122654;29;20028;-60
2022/06/08 11:10:57;;;;;;;8.38;3.78;;;;;;;16.62;100.00;100634.25;5188256;28;20037;-61
2022/06/08 11:13:33;;;;;;;3.88;3.53;;;;;;;16.71;100.00;100633.28;5203950;28;20408;-62
2022/06/08 11:16:10;;;;;;;7.82;5.38;;;;;;;16.65;100.00;100631.75;5205814;28;20022;-62
2022/06/08 11:19:03;;;;;;;6.82;4.13;;;;;;;16.46;100.00;100622.78;5204923;28;20128;-62
2022/06/08 11:21:39;;;;;;;3.25;3.15;;;;;;;16.37;100.00;100622.72;5204845;28;20037;-62
2022/06/08 11:24:29;;;;;;;4.43;4.03;;;;;;;16.21;100.00;100613.16;5203999;28;20053;-62
2022/06/08 11:27:12;;;;;;;;;;;;;;;16.28;100.00;100612.78;5205126;28;20086;-61
2022/06/08 11:29:42;;;;;;;5.03;4.28;;;;;;;16.36;100.00;100610.19;5221439;28;19909;-63
2022/06/08 11:32:41;;;;;;;5.38;5.03;;;;;;;16.26;100.00;100607.63;5208612;28;20033;-62
2022/06/08 11:35:14;;;;;;;4.13;3.13;;;;;;;16.33;100.00;100599.88;5208126;28;20044;-61
2022/06/08 11:37:57;;;;;;;3.67;2.80;;;;;;;16.46;100.00;100601.00;5209156;28;20581;-62
2022/06/08 11:40:32;;;;;;;3.78;3.47;;;;;;;16.25;100.00;100553.44;5209401;28;20029;-65
2022/06/08 11:43:15;;;;;;;4.68;4.22;;;;;;;16.65;100.00;100590.84;5208258;28;20030;-62
2022/06/08 11:45:55;;;;;;;4.97;4.53;;;;;;;16.61;100.00;100594.47;5208114;28;20551;-61
2022/06/08 11:48:29;;;;;;;5.28;3.95;;;;;;;16.46;100.00;100590.91;5208335;28;20044;-62
2022/06/08 11:51:03;;;;;;;4.65;3.20;;;;;;;16.40;100.00;100599.50;5208507;28;20603;-61
2022/06/08 11:53:39;;;;;;;4.95;4.53;;;;;;;16.29;100.00;100585.25;5207727;28;20032;-61
2022/06/08 11:56:15;;;;;;;3.95;3.75;;;;;;;16.36;100.00;100593.84;5207520;28;20096;-61
2022/06/08 11:58:49;;;;;;;4.75;4.35;;;;;;;16.26;100.00;100596.75;5204254;28;20034;-61
2022/06/08 12:01:24;;;;;;;15.13;6.03;;;;;;;16.28;100.00;100580.09;5187471;28;20028;-62
2022/06/08 12:04:05;;;;;;;3.42;3.22;;;;;;;16.33;100.00;100597.16;5203848;28;20022;-62
2022/06/08 12:06:38;;;;;;;3.35;3.22;;;;;;;16.33;100.00;100580.00;5188977;28;20148;-61
2022/06/08 12:09:15;;;;;;;4.03;3.70;;;;;;;16.41;100.00;100591.03;5204082;28;20029;-60
2022/06/08 12:11:50;;;;;;;4.60;4.38;;;;;;;16.50;100.00;100586.47;5204011;28;20655;-61
2022/06/08 12:14:25;;;;;;;4.18;3.88;;;;;;;16.67;100.00;100588.63;5203691;28;20038;-62
2022/06/08 12:17:04;;;;;;;3.30;3.17;;;;;;;16.74;100.00;100585.50;5203843;28;20069;-63
2022/06/08 12:19:55;;;;;;;3.80;3.57;;;;;;;16.74;100.00;100583.59;5204017;28;20477;-61
2022/06/08 12:22:27;;;;;;;3.78;3.42;;;;;;;16.67;100.00;100585.09;5203540;28;20103;-61
2022/06/08 12:25:21;;;;;;;5.93;3.25;;;;;;;16.64;100.00;100589.25;5203157;28;20091;-61
2022/06/08 12:28:16;;;;;;;3.97;3.70;;;;;;;16.57;100.00;100571.63;5203544;28;20030;-60
2022/06/08 12:30:49;;;;;;;6.15;3.80;;;;;;;16.77;100.00;100573.97;5203182;28;20036;-62
2022/06/08 12:33:20;;;;;;;4.40;4.10;;;;;;;16.78;100.00;100578.31;5214224;28;20025;-61